Barefoot — WDF2911 — position and weather

sailwx.info

Track history (hours):
 
Tides and Currents Weather Stations Pressure Air Temp Water Temp Dewpoint Dewpoint Depression Visibility Wind Speed Wind Dir Waves Ship Positions

Barefoot

Owner: Content, David W, Seattle, WA. More information available from US FCC via Universal Licensing System and Coast Guard Vessel Documentation Center.

Last reported at 2016-Nov-15 00:32 UTC. Time now 2016-Dec-09 21:17 UTC.
Position S 22°20' E 166°28'.
Warning: this ship's position is 24 days out of date.

Length 13 m.

Type: Sailing vessel. MMSI: 367433390.

Date/timePositionNaut miles runAvg speedWind from/ knotsBaromVisibWave heightAir tempDewpointWater temp
2016-Nov-15 00:32S 22°20' E 166°28'3 3.8
2016-Nov-14 23:40S 22°17' E 166°26'0 0.0
2016-Nov-14 19:31S 22°17' E 166°26'0 0.0
2016-Nov-14 17:32S 22°17' E 166°26'0 0.0
2016-Nov-14 16:31S 22°17' E 166°26'0 0.0
2016-Nov-14 15:31S 22°17' E 166°26'0 0.0
2016-Nov-14 11:28S 22°17' E 166°26'0 0.0
2016-Nov-14 08:28S 22°17' E 166°26'0 0.0
2016-Nov-14 05:31S 22°17' E 166°26'0 0.0
2016-Nov-14 00:31S 22°17' E 166°26'0 0.0
2016-Nov-13 23:31S 22°17' E 166°26'0 0.0
2016-Nov-13 22:33S 22°17' E 166°26'11 2.5
2016-Nov-13 18:16S 22°10' E 166°17'0 0.0
2016-Nov-13 17:16S 22°10' E 166°17'0 0.0
2016-Nov-12 17:28S 22°10' E 166°17'0 0.0
2016-Nov-12 16:16S 22°10' E 166°17'0 0.0
2016-Nov-11 19:19S 22°11' E 166°17'0 0.0
2016-Nov-11 15:31S 22°11' E 166°17'0 0.0
2016-Nov-11 14:25S 22°11' E 166°17'0 0.0
2016-Nov-11 10:13S 22°11' E 166°17'1 0.2
2016-Nov-11 06:23S 22°11' E 166°18'4 5.2
2016-Nov-11 05:31S 22°16' E 166°17'2 0.4
2016-Nov-10 23:15S 22°18' E 166°17'7 0.3
2016-Nov-09 18:36S 22°10' E 166°17'0 0.0
2016-Nov-09 15:30S 22°10' E 166°17'11 0.3
2016-Nov-08 00:29S 22°17' E 166°26'0 0.0
2016-Nov-07 23:32S 22°17' E 166°26'0 0.0
2016-Nov-07 19:29S 22°17' E 166°26'0 0.0
2016-Nov-07 17:29S 22°17' E 166°26'0 0.0
2016-Nov-07 16:29S 22°17' E 166°26'0 0.0
2016-Nov-07 15:29S 22°17' E 166°26'0 0.0
2016-Nov-07 14:32S 22°17' E 166°26'0 0.0
2016-Nov-07 13:29S 22°17' E 166°26'0 0.0
2016-Nov-07 09:29S 22°17' E 166°26'0 0.0
2016-Nov-07 08:29S 22°17' E 166°26'0 0.0
2016-Nov-07 07:32S 22°17' E 166°26'0 0.0
2016-Nov-07 06:29S 22°17' E 166°26'0 0.0
2016-Nov-07 05:29S 22°17' E 166°26'0 0.0
2016-Nov-07 02:29S 22°17' E 166°26'0 0.0
2016-Nov-07 01:29S 22°17' E 166°26'11 0.6
2016-Nov-06 07:23S 22°10' E 166°17'0 0.0
2016-Nov-05 23:27S 22°10' E 166°17'  
Track history (hours):
 
Tides and Currents Weather Stations Pressure Air Temp Water Temp Dewpoint Dewpoint Depression Visibility Wind Speed Wind Dir Waves Ship Positions

Barefoot

Owner: Content, David W, Seattle, WA. More information available from US FCC via Universal Licensing System and Coast Guard Vessel Documentation Center.

Last reported at 2016-Nov-15 00:32 UTC. Time now 2016-Dec-09 21:17 UTC.
Position S 22°20' E 166°28'.
Warning: this ship's position is 24 days out of date.

Length 13 m.

Type: Sailing vessel. MMSI: 367433390.

Date/timePositionNaut miles runAvg speedWind from/ knotsBaromVisibWave heightAir tempDewpointWater temp
2016-Nov-15 00:32S 22°20' E 166°28'3 3.8
2016-Nov-14 23:40S 22°17' E 166°26'0 0.0
2016-Nov-14 19:31S 22°17' E 166°26'0 0.0
2016-Nov-14 17:32S 22°17' E 166°26'0 0.0
2016-Nov-14 16:31S 22°17' E 166°26'0 0.0
2016-Nov-14 15:31S 22°17' E 166°26'0 0.0
2016-Nov-14 11:28S 22°17' E 166°26'0 0.0
2016-Nov-14 08:28S 22°17' E 166°26'0 0.0
2016-Nov-14 05:31S 22°17' E 166°26'0 0.0
2016-Nov-14 00:31S 22°17' E 166°26'0 0.0
2016-Nov-13 23:31S 22°17' E 166°26'0 0.0
2016-Nov-13 22:33S 22°17' E 166°26'11 2.5
2016-Nov-13 18:16S 22°10' E 166°17'0 0.0
2016-Nov-13 17:16S 22°10' E 166°17'0 0.0
2016-Nov-12 17:28S 22°10' E 166°17'0 0.0
2016-Nov-12 16:16S 22°10' E 166°17'0 0.0
2016-Nov-11 19:19S 22°11' E 166°17'0 0.0
2016-Nov-11 15:31S 22°11' E 166°17'0 0.0
2016-Nov-11 14:25S 22°11' E 166°17'0 0.0
2016-Nov-11 10:13S 22°11' E 166°17'1 0.2
2016-Nov-11 06:23S 22°11' E 166°18'4 5.2
2016-Nov-11 05:31S 22°16' E 166°17'2 0.4
2016-Nov-10 23:15S 22°18' E 166°17'7 0.3
2016-Nov-09 18:36S 22°10' E 166°17'0 0.0
2016-Nov-09 15:30S 22°10' E 166°17'11 0.3
2016-Nov-08 00:29S 22°17' E 166°26'0 0.0
2016-Nov-07 23:32S 22°17' E 166°26'0 0.0
2016-Nov-07 19:29S 22°17' E 166°26'0 0.0
2016-Nov-07 17:29S 22°17' E 166°26'0 0.0
2016-Nov-07 16:29S 22°17' E 166°26'0 0.0
2016-Nov-07 15:29S 22°17' E 166°26'0 0.0
2016-Nov-07 14:32S 22°17' E 166°26'0 0.0
2016-Nov-07 13:29S 22°17' E 166°26'0 0.0
2016-Nov-07 09:29S 22°17' E 166°26'0 0.0
2016-Nov-07 08:29S 22°17' E 166°26'0 0.0
2016-Nov-07 07:32S 22°17' E 166°26'0 0.0
2016-Nov-07 06:29S 22°17' E 166°26'0 0.0
2016-Nov-07 05:29S 22°17' E 166°26'0 0.0
2016-Nov-07 02:29S 22°17' E 166°26'0 0.0
2016-Nov-07 01:29S 22°17' E 166°26'11 0.6
2016-Nov-06 07:23S 22°10' E 166°17'0 0.0
2016-Nov-05 23:27S 22°10' E 166°17'  

Dump ship's entire track history